Time,TemperatureF,DewpointF,PressureIn,WindDirection,WindDirectionDegrees,WindSpeedMPH,WindSpeedGustMPH,Humidity,HourlyPrecipIn,Conditions,Clouds,dailyrainin,SolarRadiationWatts/m^2,SoftwareType,DateUTC
2013-01-17 00:11:00,8.0,0.0,30.27,NW,317,3.0,6.0,69,0.00,,,0.00,0,weatherlink.com 1.10,2013-01-17 06:11:00,
2013-01-17 00:26:00,7.5,-1.0,30.28,NNW,340,0.0,7.0,69,0.00,,,0.00,0,weatherlink.com 1.10,2013-01-17 06:26:00,
2013-01-17 00:41:00,6.7,-2.0,30.30,NNW,340,0.0,2.0,69,0.00,,,0.00,0,weatherlink.com 1.10,2013-01-17 06:41:00,
2013-01-17 00:56:00,5.5,-2.0,30.32,NNW,340,0.0,0.0,71,0.00,,,0.00,0,weatherlink.com 1.10,2013-01-17 06:56:00,
2013-01-17 01:11:00,5.5,-2.0,30.32,NW,309,0.0,6.0,72,0.00,,,0.00,0,weatherlink.com 1.10,2013-01-17 07:11:00,
2013-01-17 01:26:00,5.3,-2.0,30.32,NW,307,0.0,0.0,71,0.00,,,0.00,0,weatherlink.com 1.10,2013-01-17 07:26:00,
2013-01-17 01:41:00,4.9,-2.0,30.34,WNW,293,2.0,5.0,72,0.00,,,0.00,0,weatherlink.com 1.10,2013-01-17 07:41:00,
2013-01-17 01:56:00,4.8,-2.0,30.34,WNW,286,2.0,6.0,73,0.00,,,0.00,0,weatherlink.com 1.10,2013-01-17 07:56:00,
2013-01-17 02:11:00,4.3,-2.0,30.34,WNW,294,0.0,6.0,74,0.00,,,0.00,0,weatherlink.com 1.10,2013-01-17 08:11:00,
2013-01-17 02:26:00,3.6,-3.0,30.34,WNW,296,0.0,3.0,75,0.00,,,0.00,0,weatherlink.com 1.10,2013-01-17 08:26:00,
2013-01-17 02:41:00,3.2,-3.0,30.35,WNW,295,0.0,0.0,75,0.00,,,0.00,0,weatherlink.com 1.10,2013-01-17 08:41:00,
2013-01-17 02:57:00,2.9,-3.0,30.36,WNW,291,0.0,5.0,76,0.00,,,0.00,0,weatherlink.com 1.10,2013-01-17 08:57:00,
2013-01-17 03:12:00,2.7,-3.0,30.36,WNW,295,1.0,6.0,77,0.00,,,0.00,0,weatherlink.com 1.10,2013-01-17 09:12:00,
2013-01-17 03:27:00,2.4,-3.0,30.36,WNW,301,5.0,7.0,77,0.00,,,0.00,0,weatherlink.com 1.10,2013-01-17 09:27:00,
2013-01-17 03:42:00,2.2,-3.0,30.36,WNW,287,3.0,8.0,77,0.00,,,0.00,0,weatherlink.com 1.10,2013-01-17 09:42:00,
2013-01-17 03:58:00,2.0,-4.0,30.37,West,281,0.0,6.0,77,0.00,,,0.00,0,weatherlink.com 1.10,2013-01-17 09:58:00,
2013-01-17 04:12:00,1.7,-4.0,30.37,West,279,0.0,4.0,77,0.00,,,0.00,0,weatherlink.com 1.10,2013-01-17 10:12:00,
2013-01-17 04:27:00,1.7,-4.0,30.38,NW,304,4.0,8.0,78,0.00,,,0.00,0,weatherlink.com 1.10,2013-01-17 10:27:00,
2013-01-17 04:42:00,1.6,-4.0,30.40,WNW,288,0.0,6.0,78,0.00,,,0.00,0,weatherlink.com 1.10,2013-01-17 10:42:00,
2013-01-17 04:57:00,1.8,-4.0,30.39,WNW,288,7.0,8.0,78,0.00,,,0.00,0,weatherlink.com 1.10,2013-01-17 10:57:00,
2013-01-17 05:12:00,2.4,-3.0,30.39,WNW,283,0.0,6.0,78,0.00,,,0.00,0,weatherlink.com 1.10,2013-01-17 11:12:00,
2013-01-17 05:27:00,2.8,-3.0,30.39,West,274,0.0,7.0,77,0.00,,,0.00,0,weatherlink.com 1.10,2013-01-17 11:27:00,
2013-01-17 05:42:00,3.1,-3.0,30.39,WSW,249,0.0,7.0,77,0.00,,,0.00,0,weatherlink.com 1.10,2013-01-17 11:42:00,
2013-01-17 05:57:00,3.5,-2.0,30.40,West,260,0.0,7.0,77,0.00,,,0.00,0,weatherlink.com 1.10,2013-01-17 11:57:00,
2013-01-17 06:13:00,3.8,-2.0,30.40,WSW,249,0.0,5.0,76,0.00,,,0.00,0,weatherlink.com 1.10,2013-01-17 12:13:00,
2013-01-17 06:28:00,4.1,-2.0,30.40,SW,230,0.0,7.0,76,0.00,,,0.00,0,weatherlink.com 1.10,2013-01-17 12:28:00,
2013-01-17 06:43:00,4.2,-2.0,30.40,WSW,242,0.0,6.0,75,0.00,,,0.00,0,weatherlink.com 1.10,2013-01-17 12:43:00,
2013-01-17 06:58:00,4.0,-2.0,30.40,SW,229,0.0,4.0,75,0.00,,,0.00,0,weatherlink.com 1.10,2013-01-17 12:58:00,
2013-01-17 07:13:00,3.5,-3.0,30.40,SW,229,0.0,0.0,75,0.00,,,0.00,0,weatherlink.com 1.10,2013-01-17 13:13:00,
2013-01-17 07:28:00,3.8,-2.0,30.40,SW,229,0.0,0.0,75,0.00,,,0.00,0,weatherlink.com 1.10,2013-01-17 13:28:00,
2013-01-17 07:43:00,4.1,-2.0,30.41,SW,229,0.0,3.0,75,0.00,,,0.00,0,weatherlink.com 1.10,2013-01-17 13:43:00,
2013-01-17 07:58:00,4.6,-2.0,30.41,West,259,0.0,0.0,75,0.00,,,0.00,9,weatherlink.com 1.10,2013-01-17 13:58:00,
2013-01-17 08:13:00,5.2,-1.0,30.43,West,261,0.0,0.0,75,0.00,,,0.00,19,weatherlink.com 1.10,2013-01-17 14:13:00,
2013-01-17 08:28:00,5.6,-1.0,30.43,West,261,0.0,0.0,75,0.00,,,0.00,35,weatherlink.com 1.10,2013-01-17 14:28:00,
2013-01-17 08:43:00,6.1,0.0,30.42,West,261,0.0,0.0,75,0.00,,,0.00,47,weatherlink.com 1.10,2013-01-17 14:43:00,
2013-01-17 08:58:00,6.6,0.0,30.43,WSW,252,0.0,0.0,75,0.00,,,0.00,69,weatherlink.com 1.10,2013-01-17 14:58:00,
2013-01-17 09:13:00,7.2,1.0,30.45,SW,232,0.0,0.0,74,0.00,,,0.00,70,weatherlink.com 1.10,2013-01-17 15:13:00,
2013-01-17 09:29:00,8.1,1.0,30.45,SW,221,0.0,0.0,74,0.00,,,0.00,98,weatherlink.com 1.10,2013-01-17 15:29:00,
2013-01-17 09:44:00,8.7,1.0,30.45,SW,219,0.0,0.0,72,0.00,,,0.00,114,weatherlink.com 1.10,2013-01-17 15:44:00,
2013-01-17 09:59:00,9.4,1.0,30.45,SW,221,6.0,7.0,70,0.00,,,0.00,132,weatherlink.com 1.10,2013-01-17 15:59:00,
2013-01-17 10:14:00,10.0,2.0,30.45,SSW,208,0.0,6.0,69,0.00,,,0.00,153,weatherlink.com 1.10,2013-01-17 16:14:00,
2013-01-17 10:29:00,10.6,2.0,30.44,South,190,0.0,1.0,67,0.00,,,0.00,188,weatherlink.com 1.10,2013-01-17 16:29:00,
2013-01-17 10:44:00,11.3,0.0,30.45,SSW,210,0.0,5.0,61,0.00,,,0.00,137,weatherlink.com 1.10,2013-01-17 16:44:00,
2013-01-17 10:59:00,11.9,1.0,30.45,SW,217,0.0,5.0,61,0.00,,,0.00,135,weatherlink.com 1.10,2013-01-17 16:59:00,
2013-01-17 11:14:00,12.8,1.0,30.45,WSW,258,7.0,8.0,59,0.00,,,0.00,183,weatherlink.com 1.10,2013-01-17 17:14:00,
2013-01-17 11:29:00,13.2,1.0,30.45,SW,229,1.0,8.0,59,0.00,,,0.00,160,weatherlink.com 1.10,2013-01-17 17:29:00,
2013-01-17 11:44:00,13.6,2.0,30.44,WSW,238,2.0,7.0,60,0.00,,,0.00,218,weatherlink.com 1.10,2013-01-17 17:44:00,
2013-01-17 11:59:00,14.3,3.0,30.44,SW,232,2.0,7.0,62,0.00,,,0.00,267,weatherlink.com 1.10,2013-01-17 17:59:00,
2013-01-17 12:14:00,14.8,5.0,30.44,West,260,1.0,8.0,64,0.00,,,0.00,464,weatherlink.com 1.10,2013-01-17 18:14:00,
2013-01-17 12:29:00,15.8,5.0,30.44,SW,225,6.0,10.0,62,0.00,,,0.00,415,weatherlink.com 1.10,2013-01-17 18:29:00,
2013-01-17 12:44:00,17.0,7.0,30.44,WSW,252,0.0,8.0,65,0.00,,,0.00,417,weatherlink.com 1.10,2013-01-17 18:44:00,
2013-01-17 13:00:00,17.1,8.0,30.43,West,270,6.0,12.0,66,0.00,,,0.00,415,weatherlink.com 1.10,2013-01-17 19:00:00,
2013-01-17 13:15:00,17.8,9.0,30.43,West,271,3.0,9.0,67,0.00,,,0.00,408,weatherlink.com 1.10,2013-01-17 19:15:00,
2013-01-17 13:30:00,18.5,10.0,30.43,WSW,257,4.0,10.0,68,0.00,,,0.00,399,weatherlink.com 1.10,2013-01-17 19:30:00,
2013-01-17 13:45:00,19.1,10.0,30.43,West,279,0.0,10.0,69,0.00,,,0.00,387,weatherlink.com 1.10,2013-01-17 19:45:00,
2013-01-17 14:00:00,19.7,11.0,30.42,WNW,285,1.0,11.0,69,0.00,,,0.00,371,weatherlink.com 1.10,2013-01-17 20:00:00,
2013-01-17 14:15:00,19.7,11.0,30.42,WNW,286,1.0,8.0,70,0.00,,,0.00,350,weatherlink.com 1.10,2013-01-17 20:15:00,
2013-01-17 14:30:00,19.7,11.0,30.42,WNW,287,6.0,11.0,70,0.00,,,0.00,327,weatherlink.com 1.10,2013-01-17 20:30:00,
2013-01-17 14:45:00,19.7,12.0,30.42,NW,304,1.0,10.0,71,0.00,,,0.00,301,weatherlink.com 1.10,2013-01-17 20:45:00,
2013-01-17 15:00:00,19.3,11.0,30.42,WNW,294,3.0,9.0,71,0.00,,,0.00,262,weatherlink.com 1.10,2013-01-17 21:00:00,
2013-01-17 15:15:00,19.4,11.0,30.43,WNW,283,6.0,10.0,71,0.00,,,0.00,221,weatherlink.com 1.10,2013-01-17 21:15:00,
2013-01-17 15:30:00,19.2,12.0,30.43,WNW,294,1.0,10.0,72,0.00,,,0.00,179,weatherlink.com 1.10,2013-01-17 21:30:00,
2013-01-17 15:45:00,19.1,12.0,30.43,WNW,303,6.0,9.0,73,0.00,,,0.00,139,weatherlink.com 1.10,2013-01-17 21:45:00,
2013-01-17 16:00:00,18.8,12.0,30.43,WNW,292,7.0,9.0,73,0.00,,,0.00,40,weatherlink.com 1.10,2013-01-17 22:00:00,
2013-01-17 16:16:00,17.8,11.0,30.44,WNW,300,0.0,8.0,74,0.00,,,0.00,19,weatherlink.com 1.10,2013-01-17 22:16:00,
2013-01-17 16:31:00,16.9,10.0,30.44,WNW,291,0.0,7.0,75,0.00,,,0.00,14,weatherlink.com 1.10,2013-01-17 22:31:00,
2013-01-17 16:46:00,16.1,10.0,30.44,WNW,291,0.0,0.0,76,0.00,,,0.00,11,weatherlink.com 1.10,2013-01-17 22:46:00,
2013-01-17 17:01:00,15.3,9.0,30.44,WNW,291,0.0,0.0,77,0.00,,,0.00,5,weatherlink.com 1.10,2013-01-17 23:01:00,
2013-01-17 17:16:00,14.4,9.0,30.44,WNW,291,0.0,0.0,78,0.00,,,0.00,0,weatherlink.com 1.10,2013-01-17 23:16:00,
2013-01-17 17:31:00,14.2,9.0,30.44,WNW,291,0.0,0.0,80,0.00,,,0.00,0,weatherlink.com 1.10,2013-01-17 23:31:00,
2013-01-17 17:46:00,14.1,9.0,30.45,WNW,291,0.0,0.0,80,0.00,,,0.00,0,weatherlink.com 1.10,2013-01-17 23:46:00,
2013-01-17 18:01:00,14.3,10.0,30.44,WNW,291,0.0,0.0,81,0.00,,,0.00,0,weatherlink.com 1.10,2013-01-18 00:01:00,
2013-01-17 18:16:00,14.5,9.0,30.43,WNW,291,0.0,0.0,80,0.00,,,0.00,0,weatherlink.com 1.10,2013-01-18 00:16:00,
2013-01-17 18:31:00,13.8,9.0,30.44,WNW,291,0.0,0.0,80,0.00,,,0.00,0,weatherlink.com 1.10,2013-01-18 00:31:00,
2013-01-17 18:46:00,14.0,10.0,30.44,WNW,291,0.0,0.0,82,0.00,,,0.00,0,weatherlink.com 1.10,2013-01-18 00:46:00,
2013-01-17 19:01:00,14.4,10.0,30.43,WNW,291,0.0,0.0,82,0.00,,,0.00,0,weatherlink.com 1.10,2013-01-18 01:01:00,
2013-01-17 19:32:00,15.3,11.0,30.44,WNW,291,0.0,0.0,81,0.00,,,0.00,0,weatherlink.com 1.10,2013-01-18 01:32:00,
2013-01-17 19:47:00,15.5,11.0,30.43,WNW,291,0.0,0.0,81,0.00,,,0.00,0,weatherlink.com 1.10,2013-01-18 01:47:00,
2013-01-17 20:02:00,15.8,11.0,30.44,WNW,291,0.0,0.0,81,0.00,,,0.00,0,weatherlink.com 1.10,2013-01-18 02:02:00,
2013-01-17 20:17:00,15.8,11.0,30.43,WNW,290,0.0,0.0,82,0.00,,,0.00,0,weatherlink.com 1.10,2013-01-18 02:17:00,
2013-01-17 20:32:00,15.8,11.0,30.43,WNW,290,0.0,0.0,82,0.00,,,0.00,0,weatherlink.com 1.10,2013-01-18 02:32:00,
2013-01-17 20:47:00,16.1,12.0,30.42,WNW,291,0.0,0.0,82,0.00,,,0.00,0,weatherlink.com 1.10,2013-01-18 02:47:00,
2013-01-17 21:02:00,16.2,12.0,30.42,WNW,291,0.0,0.0,82,0.00,,,0.00,0,weatherlink.com 1.10,2013-01-18 03:02:00,
2013-01-17 21:17:00,16.4,12.0,30.42,WNW,291,0.0,0.0,82,0.00,,,0.00,0,weatherlink.com 1.10,2013-01-18 03:17:00,
2013-01-17 21:32:00,16.5,12.0,30.41,WNW,291,0.0,0.0,82,0.00,,,0.00,0,weatherlink.com 1.10,2013-01-18 03:32:00,
2013-01-17 21:47:00,16.5,12.0,30.40,WNW,290,0.0,0.0,82,0.00,,,0.00,0,weatherlink.com 1.10,2013-01-18 03:47:00,
2013-01-17 22:02:00,16.6,12.0,30.39,WNW,290,0.0,0.0,82,0.00,,,0.00,0,weatherlink.com 1.10,2013-01-18 04:02:00,
2013-01-17 22:17:00,16.7,12.0,30.38,WNW,290,0.0,0.0,82,0.00,,,0.00,0,weatherlink.com 1.10,2013-01-18 04:17:00,
2013-01-17 22:32:00,16.8,12.0,30.38,WNW,290,0.0,0.0,82,0.00,,,0.00,0,weatherlink.com 1.10,2013-01-18 04:32:00,
2013-01-17 22:48:00,17.0,12.0,30.37,WNW,290,0.0,0.0,82,0.00,,,0.00,0,weatherlink.com 1.10,2013-01-18 04:48:00,
2013-01-17 23:03:00,17.2,13.0,30.36,WNW,290,0.0,0.0,83,0.00,,,0.00,0,weatherlink.com 1.10,2013-01-18 05:03:00,
2013-01-17 23:18:00,17.6,13.0,30.36,WNW,290,0.0,0.0,83,0.00,,,0.00,0,weatherlink.com 1.10,2013-01-18 05:18:00,
2013-01-17 23:33:00,18.0,14.0,30.35,WNW,290,0.0,0.0,84,0.00,,,0.00,0,weatherlink.com 1.10,2013-01-18 05:33:00,
2013-01-17 23:48:00,18.1,14.0,30.34,WNW,290,0.0,0.0,84,0.00,,,0.00,0,weatherlink.com 1.10,2013-01-18 05:48:00,